Time;durP1;ratioP1;P1;durP2;ratioP2;P2;SDS_P1;SDS_P2;PMS_P1;PMS_P2;Temp;Humidity;BMP_temperature;BMP_pressure;BME280_temperature;BME280_humidity;BME280_pressure;Samples;Min_cycle;Max_cycle;Signal;HPM_P1;HPM_P2
2021/06/14 00:00:56;;;;;;;1.37;1.10;;;;;;;36.56;43.87;160816.95;1710870;83;21194;-77
2021/06/14 00:03:29;;;;;;;2.25;1.20;;;;;;;36.50;43.79;160802.23;1720914;83;21756;-78
2021/06/14 00:06:01;;;;;;;1.15;0.90;;;;;;;36.29;43.99;160745.98;1720640;83;21246;-77
2021/06/14 00:08:33;;;;;;;1.85;1.00;;;;;;;36.23;44.13;160728.59;1721020;83;21709;-77
2021/06/14 00:11:06;;;;;;;2.55;1.00;;;;;;;36.46;43.77;160790.19;1707697;82;21758;-77
2021/06/14 00:13:39;;;;;;;2.33;1.02;;;;;;;36.52;43.48;160807.59;1704651;84;21192;-78
2021/06/14 00:16:12;;;;;;;2.05;0.90;;;;;;;36.52;43.44;160807.59;1766752;81;21158;-77
2021/06/14 00:18:46;;;;;;;1.67;1.22;;;;;;;36.44;43.53;160784.78;1769212;80;21229;-77
2021/06/14 00:21:19;;;;;;;1.80;1.07;;;;;;;36.66;43.07;160843.72;1767296;81;22403;-77
2021/06/14 00:23:51;;;;;;;1.00;0.90;;;;;;;36.21;43.62;160723.22;1767299;81;21173;-77
2021/06/14 00:26:24;;;;;;;1.20;0.82;;;;;;;36.25;43.52;160733.95;1767354;81;21217;-77
2021/06/14 00:28:58;;;;;;;1.57;0.98;;;;;;;36.05;43.78;160680.44;1767219;81;21179;-77
2021/06/14 00:31:30;;;;;;;1.72;1.20;;;;;;;34.99;45.48;160395.39;1767324;81;21264;-77
2021/06/14 00:34:03;;;;;;;0.95;0.95;;;;;;;34.84;46.04;160355.27;1763817;81;21191;-78
2021/06/14 00:36:36;;;;;;;1.25;0.80;;;;;;;34.73;46.36;160324.55;1742861;81;21171;-78
2021/06/14 00:39:09;;;;;;;1.65;1.00;;;;;;;34.75;46.37;160331.22;1747261;80;21392;-77
2021/06/14 00:41:43;;;;;;;1.72;1.10;;;;;;;34.71;46.57;160320.56;1770529;81;21212;-78
2021/06/14 00:44:16;;;;;;;2.35;1.10;;;;;;;34.64;46.78;160300.50;1771675;81;21877;-77
2021/06/14 00:46:48;;;;;;;1.10;1.00;;;;;;;34.61;46.93;160292.47;1771013;80;21206;-77
2021/06/14 00:49:21;;;;;;;3.60;2.00;;;;;;;34.64;46.94;160300.50;1770807;81;21454;-77
2021/06/14 00:51:53;;;;;;;2.15;1.20;;;;;;;34.73;46.81;160324.55;1771610;80;21321;-77
2021/06/14 00:54:26;;;;;;;1.60;0.95;;;;;;;34.66;46.95;160305.84;1771688;81;21416;-77
2021/06/14 00:56:59;;;;;;;1.07;0.90;;;;;;;34.62;47.04;160296.45;1771516;81;21305;-77
2021/06/14 00:59:31;;;;;;;1.87;0.95;;;;;;;34.64;47.12;160300.50;1771563;81;21222;-77
2021/06/14 01:02:03;;;;;;;3.55;1.20;;;;;;;34.64;47.21;160300.50;1771621;80;21904;-77
2021/06/14 01:04:37;;;;;;;1.30;1.15;;;;;;;34.67;47.22;160308.47;1772101;81;21167;-77
2021/06/14 01:07:09;;;;;;;3.60;1.20;;;;;;;34.70;47.19;160316.50;1772443;81;21175;-77
2021/06/14 01:09:42;;;;;;;2.22;1.17;;;;;;;34.65;47.34;160304.48;1771638;80;21199;-77
2021/06/14 01:12:14;;;;;;;1.20;1.07;;;;;;;34.66;47.44;160305.84;1772284;81;21904;-77
2021/06/14 01:15:01;;;;;;;2.67;1.10;;;;;;;34.87;47.20;160361.98;1772519;81;21220;-77
2021/06/14 01:17:53;;;;;;;2.60;1.20;;;;;;;34.57;47.69;160283.13;1771241;80;21187;-77
2021/06/14 01:20:52;;;;;;;3.02;1.12;;;;;;;34.64;47.58;160301.81;1770268;81;21752;-78
2021/06/14 01:23:50;;;;;;;0.98;0.90;;;;;;;34.59;47.78;160288.47;1770563;81;21215;-77
2021/06/14 01:26:23;;;;;;;1.05;1.00;;;;;;;34.75;47.53;160331.22;1770731;81;21290;-77
2021/06/14 01:29:00;;;;;;;3.02;1.10;;;;;;;34.79;47.51;160341.92;1772075;81;21178;-77
2021/06/14 01:31:36;;;;;;;1.35;0.82;;;;;;;35.05;47.19;160411.50;1772942;80;22903;-77
2021/06/14 01:34:08;;;;;;;1.82;1.20;;;;;;;34.82;47.45;160349.97;1771753;81;21384;-77
2021/06/14 01:36:42;;;;;;;2.58;1.10;;;;;;;34.77;47.61;160336.56;1772980;81;21408;-77
2021/06/14 01:39:14;;;;;;;1.45;1.32;;;;;;;34.78;47.66;160339.25;1772610;81;21325;-77
2021/06/14 01:41:47;;;;;;;1.92;1.10;;;;;;;34.96;47.33;160386.03;1712104;82;21351;-77
2021/06/14 01:44:20;;;;;;;1.30;1.20;;;;;;;34.75;47.75;160329.91;1757929;80;21428;-77
2021/06/14 01:46:56;;;;;;;1.60;1.20;;;;;;;34.71;47.96;160319.19;1770513;81;21250;-77
2021/06/14 01:49:28;;;;;;;1.17;1.05;;;;;;;34.75;47.89;160329.91;1772236;81;21820;-77
2021/06/14 01:52:02;;;;;;;1.17;1.07;;;;;;;35.06;47.36;160412.81;1772593;80;21332;-77
2021/06/14 01:54:36;;;;;;;1.77;1.20;;;;;;;34.82;47.62;160349.97;1771863;80;21175;-77
2021/06/14 01:57:10;;;;;;;5.30;1.30;;;;;;;34.79;47.62;160341.92;1770707;81;21682;-77
2021/06/14 01:59:53;;;;;;;5.45;1.50;;;;;;;34.94;47.51;160382.05;1770304;80;21682;-77
2021/06/14 02:02:30;;;;;;;1.30;1.20;;;;;;;34.94;47.47;160382.05;1770879;80;21226;-77
2021/06/14 02:05:04;;;;;;;1.75;1.27;;;;;;;34.95;47.47;160384.72;1771361;80;21392;-78
2021/06/14 02:07:37;;;;;;;1.20;1.10;;;;;;;34.98;47.42;160392.70;1771354;81;21860;-77
2021/06/14 02:10:11;;;;;;;1.47;1.37;;;;;;;35.01;47.40;160399.42;1771176;81;21183;-77
2021/06/14 02:12:44;;;;;;;1.47;1.30;;;;;;;35.00;47.41;160396.75;1772838;81;21219;-77
2021/06/14 02:15:18;;;;;;;3.05;1.20;;;;;;;35.07;47.28;160416.81;1772573;81;21313;-77
2021/06/14 02:17:52;;;;;;;2.60;1.30;;;;;;;34.58;48.18;160284.44;1772677;81;21218;-78
2021/06/14 02:20:25;;;;;;;2.58;1.47;;;;;;;34.84;47.96;160355.27;1772247;80;21360;-77
2021/06/14 02:22:57;;;;;;;2.17;1.20;;;;;;;34.41;48.67;160238.97;1771489;81;21841;-77
2021/06/14 02:25:30;;;;;;;1.90;1.30;;;;;;;34.47;48.59;160256.34;1771500;81;21218;-77
2021/06/14 02:28:03;;;;;;;2.00;1.47;;;;;;;34.74;48.16;160327.22;1770770;81;21356;-77
2021/06/14 02:30:35;;;;;;;1.65;1.20;;;;;;;35.01;47.52;160399.42;1771660;81;21178;-77
2021/06/14 02:33:08;;;;;;;4.37;1.90;;;;;;;34.96;47.66;160387.34;1770846;81;22160;-77
2021/06/14 02:35:42;;;;;;;1.60;1.50;;;;;;;35.04;47.53;160407.41;1771526;81;21702;-77
2021/06/14 02:38:15;;;;;;;3.72;1.30;;;;;;;34.99;47.59;160395.39;1771442;81;21203;-77
2021/06/14 02:40:48;;;;;;;2.25;1.57;;;;;;;34.96;47.63;160387.34;1743934;81;21177;-77
2021/06/14 02:43:22;;;;;;;2.75;1.40;;;;;;;34.90;47.69;160369.97;1732315;82;21189;-77
2021/06/14 02:45:55;;;;;;;1.77;1.30;;;;;;;34.94;47.59;160382.05;1731943;83;21356;-78
2021/06/14 02:48:29;;;;;;;3.75;1.40;;;;;;;34.80;47.78;160344.61;1732171;82;21181;-77
2021/06/14 02:51:03;;;;;;;2.27;1.40;;;;;;;34.85;47.66;160357.94;1739819;81;21807;-77
2021/06/14 02:53:37;;;;;;;2.35;1.50;;;;;;;34.92;47.61;160376.69;1741407;82;21185;-77
2021/06/14 02:56:15;;;;;;;3.17;1.57;;;;;;;34.91;47.48;160374.02;1741914;82;21259;-77
2021/06/14 02:58:48;;;;;;;1.55;1.45;;;;;;;34.82;47.67;160348.59;1755691;82;21327;-77
2021/06/14 03:01:22;;;;;;;1.60;1.45;;;;;;;34.87;47.60;160361.98;1737779;82;21199;-77
2021/06/14 03:03:57;;;;;;;2.37;1.40;;;;;;;34.55;48.11;160276.34;1755622;82;21413;-77
2021/06/14 03:06:30;;;;;;;3.47;1.65;;;;;;;34.86;47.66;160359.31;1749642;82;21374;-77
2021/06/14 03:09:05;;;;;;;1.65;1.47;;;;;;;34.83;47.61;160352.64;1752535;81;21305;-77
2021/06/14 03:11:42;;;;;;;3.00;1.30;;;;;;;34.83;47.70;160351.28;1760646;81;21903;-77
2021/06/14 03:14:16;;;;;;;1.87;1.45;;;;;;;34.69;47.89;160313.83;1763003;81;22340;-78
2021/06/14 03:16:49;;;;;;;1.90;1.57;;;;;;;34.64;48.03;160301.81;1762970;81;21238;-78
2021/06/14 03:19:24;;;;;;;2.08;1.27;;;;;;;34.59;48.17;160288.47;1762927;81;21210;-77
2021/06/14 03:21:58;;;;;;;2.25;1.40;;;;;;;34.51;48.38;160267.00;1768208;81;21714;-77
2021/06/14 03:24:33;;;;;;;2.30;1.50;;;;;;;34.51;48.54;160265.69;1770550;81;21387;-77
2021/06/14 03:27:07;;;;;;;1.80;1.27;;;;;;;34.51;48.55;160267.00;1759537;81;21340;-77
2021/06/14 03:29:39;;;;;;;1.60;1.50;;;;;;;34.50;48.62;160264.31;1771584;81;21753;-77
2021/06/14 03:32:12;;;;;;;1.82;1.40;;;;;;;34.47;48.65;160254.97;1760439;81;21199;-78
2021/06/14 03:34:44;;;;;;;2.22;1.20;;;;;;;34.43;48.93;160244.31;1770389;81;21257;-77
2021/06/14 03:37:17;;;;;;;4.37;1.80;;;;;;;34.47;48.99;160254.97;1753882;81;21713;-77
2021/06/14 03:39:49;;;;;;;2.37;1.70;;;;;;;34.53;48.97;160272.36;1760321;80;21238;-77
2021/06/14 03:42:24;;;;;;;1.50;1.40;;;;;;;34.49;48.86;160260.33;1750663;79;21305;-79
2021/06/14 03:44:56;;;;;;;1.42;1.25;;;;;;;34.43;49.05;160245.63;1747340;81;21297;-77
2021/06/14 03:47:31;;;;;;;1.77;1.50;;;;;;;34.38;49.22;160232.25;1745285;80;21345;-76
2021/06/14 03:50:08;;;;;;;4.22;1.50;;;;;;;34.43;49.18;160245.63;1747265;79;21404;-76
2021/06/14 03:52:42;;;;;;;2.60;1.40;;;;;;;34.53;49.03;160272.36;1747890;80;21926;-77
2021/06/14 03:55:15;;;;;;;4.08;1.57;;;;;;;34.50;48.96;160264.31;1743059;81;21360;-78
2021/06/14 03:57:48;;;;;;;2.80;1.37;;;;;;;34.55;48.91;160276.34;1744169;81;21475;-77
2021/06/14 04:00:21;;;;;;;2.33;1.40;;;;;;;34.53;48.98;160271.05;1750235;80;21228;-77
2021/06/14 04:02:55;;;;;;;2.12;1.47;;;;;;;34.55;48.96;160276.34;1747986;81;21222;-78
2021/06/14 04:05:30;;;;;;;2.17;1.45;;;;;;;34.54;48.99;160273.72;1749693;81;21835;-76
2021/06/14 04:08:21;;;;;;;2.77;1.47;;;;;;;34.56;49.16;160279.03;1745312;81;21456;-75
2021/06/14 04:10:53;;;;;;;1.87;1.60;;;;;;;34.71;48.97;160320.56;1748026;79;21364;-77
2021/06/14 04:13:27;;;;;;;2.62;1.30;;;;;;;34.68;49.15;160312.52;1745440;81;21250;-76
2021/06/14 04:16:00;;;;;;;2.30;1.62;;;;;;;34.66;49.32;160305.84;1744393;81;21187;-77
2021/06/14 04:18:33;;;;;;;1.82;1.40;;;;;;;34.66;49.36;160307.16;1762598;81;21755;-75
2021/06/14 04:21:06;;;;;;;2.55;1.22;;;;;;;34.64;49.62;160301.81;1713083;83;21353;-76
2021/06/14 04:23:39;;;;;;;3.98;1.40;;;;;;;34.66;49.85;160307.16;1772235;80;21340;-76
2021/06/14 04:26:11;;;;;;;2.87;1.75;;;;;;;34.69;49.90;160315.20;1772643;81;21828;-76
2021/06/14 04:28:44;;;;;;;1.85;1.40;;;;;;;34.72;49.84;160321.88;1773267;81;21213;-76
2021/06/14 04:31:16;;;;;;;4.62;1.65;;;;;;;34.83;49.52;160352.64;1773545;81;21183;-76
2021/06/14 04:33:48;;;;;;;7.37;1.75;;;;;;;34.89;49.32;160367.34;1773483;81;21265;-76
2021/06/14 04:36:21;;;;;;;1.55;1.45;;;;;;;34.92;49.21;160376.69;1773464;81;21191;-76
2021/06/14 04:38:53;;;;;;;1.82;1.42;;;;;;;34.96;49.00;160386.03;1773240;81;21190;-76
2021/06/14 04:41:25;;;;;;;2.60;1.30;;;;;;;35.01;48.86;160400.75;1773370;81;21261;-77
2021/06/14 04:43:57;;;;;;;3.40;1.87;;;;;;;35.05;48.81;160411.50;1773430;81;21159;-76
2021/06/14 04:46:29;;;;;;;3.15;1.47;;;;;;;35.13;48.62;160431.56;1773590;81;21710;-77
2021/06/14 04:49:02;;;;;;;3.30;1.47;;;;;;;35.18;48.45;160446.28;1773433;81;21226;-76
2021/06/14 04:51:35;;;;;;;2.35;1.42;;;;;;;35.18;48.38;160446.28;1773255;81;21229;-77
2021/06/14 04:54:08;;;;;;;2.62;1.52;;;;;;;35.24;48.27;160463.61;1773316;81;21297;-77
2021/06/14 04:56:40;;;;;;;2.60;1.42;;;;;;;35.10;48.65;160423.53;1773348;81;21163;-77
2021/06/14 04:59:13;;;;;;;1.40;1.30;;;;;;;35.11;48.61;160426.22;1773608;81;21234;-77
2021/06/14 05:01:45;;;;;;;2.52;1.60;;;;;;;35.29;48.46;160477.00;1773399;81;21191;-77
2021/06/14 05:04:17;;;;;;;2.20;1.40;;;;;;;35.35;48.47;160491.72;1773328;81;21226;-77
2021/06/14 05:06:50;;;;;;;1.32;1.22;;;;;;;35.44;48.27;160515.78;1773363;81;21163;-76
2021/06/14 05:09:22;;;;;;;2.08;1.40;;;;;;;35.48;48.29;160526.48;1773559;81;21337;-77
2021/06/14 05:11:54;;;;;;;1.62;1.30;;;;;;;35.49;48.46;160529.16;1773249;81;21326;-77
2021/06/14 05:14:27;;;;;;;3.72;1.32;;;;;;;35.53;48.44;160539.94;1773289;81;21729;-77
2021/06/14 05:17:00;;;;;;;1.87;1.35;;;;;;;35.51;48.48;160534.53;1773239;81;21690;-76
2021/06/14 05:19:33;;;;;;;1.70;1.55;;;;;;;35.53;48.55;160541.25;1773340;81;21202;-76
2021/06/14 05:22:06;;;;;;;1.20;1.10;;;;;;;35.52;48.64;160537.27;1773323;81;21348;-76
2021/06/14 05:24:38;;;;;;;1.30;1.20;;;;;;;35.40;48.88;160506.42;1771336;81;21190;-76
2021/06/14 05:27:10;;;;;;;1.15;1.05;;;;;;;35.23;49.35;160459.63;1773042;81;21329;-76
2021/06/14 05:29:43;;;;;;;2.02;1.50;;;;;;;35.24;49.43;160463.61;1773309;80;21195;-76
2021/06/14 05:32:15;;;;;;;1.35;1.20;;;;;;;35.26;49.55;160467.66;1773226;81;21352;-76
2021/06/14 05:34:48;;;;;;;3.77;1.80;;;;;;;35.34;49.47;160490.41;1772341;80;21408;-77
2021/06/14 05:37:20;;;;;;;1.87;1.57;;;;;;;35.38;49.46;160499.75;1771514;81;22571;-76
2021/06/14 05:39:52;;;;;;;2.67;1.47;;;;;;;35.58;49.02;160553.28;1741733;81;21364;-77
2021/06/14 05:42:25;;;;;;;1.77;1.30;;;;;;;35.61;49.02;160561.31;1772567;81;21159;-76
2021/06/14 05:44:59;;;;;;;1.30;1.20;;;;;;;35.62;48.97;160564.00;1772507;81;21928;-76
2021/06/14 05:47:32;;;;;;;1.40;1.30;;;;;;;35.65;49.08;160572.03;1773097;81;21183;-77
2021/06/14 05:50:05;;;;;;;1.55;1.45;;;;;;;35.73;48.90;160593.42;1772740;81;21316;-76
2021/06/14 05:52:38;;;;;;;2.50;1.42;;;;;;;35.79;48.85;160609.45;1772333;81;21249;-77
2021/06/14 05:55:11;;;;;;;1.37;1.27;;;;;;;35.80;48.79;160613.50;1772844;80;21195;-77
2021/06/14 05:57:43;;;;;;;2.10;1.60;;;;;;;35.74;48.93;160597.42;1772619;81;21393;-78
2021/06/14 06:00:16;;;;;;;1.42;1.20;;;;;;;35.78;48.84;160606.77;1772487;80;21234;-78
2021/06/14 06:02:48;;;;;;;2.02;1.62;;;;;;;35.78;48.83;160606.77;1771094;80;21182;-78
2021/06/14 06:05:21;;;;;;;1.90;1.60;;;;;;;35.85;48.99;160626.84;1770602;81;21267;-79
2021/06/14 06:07:53;;;;;;;1.80;1.42;;;;;;;35.86;48.91;160629.53;1772407;81;21159;-77
2021/06/14 06:10:26;;;;;;;1.67;1.57;;;;;;;35.87;49.12;160630.89;1772919;81;21256;-78
2021/06/14 06:12:58;;;;;;;1.77;1.50;;;;;;;35.87;49.14;160630.89;1773108;81;21183;-78
2021/06/14 06:15:31;;;;;;;1.80;1.62;;;;;;;35.92;49.08;160644.23;1771938;80;21163;-78
2021/06/14 06:18:04;;;;;;;1.98;1.75;;;;;;;35.97;48.95;160658.95;1772829;81;21207;-78
2021/06/14 06:20:37;;;;;;;2.45;1.40;;;;;;;35.98;48.91;160661.62;1772016;80;21202;-78
2021/06/14 06:23:10;;;;;;;2.17;1.70;;;;;;;36.01;49.07;160669.72;1772182;81;21202;-78
2021/06/14 06:25:43;;;;;;;2.47;1.70;;;;;;;36.08;49.16;160687.13;1773114;80;21227;-78
2021/06/14 06:28:15;;;;;;;2.05;1.55;;;;;;;36.11;49.10;160697.78;1773043;81;21396;-78
2021/06/14 06:30:48;;;;;;;3.47;1.70;;;;;;;36.06;49.32;160681.75;1772999;81;21353;-78
2021/06/14 06:33:20;;;;;;;2.83;1.65;;;;;;;36.09;49.54;160692.48;1773042;81;22511;-78
2021/06/14 06:35:52;;;;;;;1.92;1.50;;;;;;;36.12;49.73;160700.47;1772971;81;21403;-78
2021/06/14 06:38:24;;;;;;;1.85;1.67;;;;;;;36.17;49.75;160713.87;1773012;81;21309;-78
2021/06/14 06:40:56;;;;;;;2.00;1.70;;;;;;;36.23;49.81;160728.59;1772975;81;21333;-78
2021/06/14 06:43:29;;;;;;;2.08;1.65;;;;;;;36.29;49.70;160745.98;1772992;81;21257;-78
2021/06/14 06:46:04;;;;;;;2.15;1.70;;;;;;;36.32;49.78;160754.03;1773105;81;21789;-78
2021/06/14 06:48:37;;;;;;;2.27;1.57;;;;;;;36.37;49.61;160766.06;1773172;81;21462;-78
2021/06/14 06:51:11;;;;;;;2.22;1.77;;;;;;;36.44;49.60;160784.78;1762535;81;21404;-78
2021/06/14 06:53:44;;;;;;;1.85;1.50;;;;;;;36.71;49.27;160858.44;1763238;81;21179;-78
2021/06/14 06:56:16;;;;;;;1.92;1.62;;;;;;;36.46;49.52;160791.50;1773178;81;21781;-78
2021/06/14 06:58:48;;;;;;;2.05;1.70;;;;;;;36.50;49.45;160802.23;1773251;81;21254;-78
2021/06/14 07:01:20;;;;;;;2.00;1.77;;;;;;;36.48;49.44;160795.56;1773184;81;21372;-78
2021/06/14 07:03:54;;;;;;;2.92;2.00;;;;;;;36.47;49.53;160794.19;1773069;79;21357;-78
2021/06/14 07:06:26;;;;;;;2.27;1.60;;;;;;;36.60;49.38;160829.00;1773242;81;21730;-78
2021/06/14 07:08:59;;;;;;;3.05;1.50;;;;;;;36.62;49.40;160833.03;1773116;81;21349;-78
2021/06/14 07:11:31;;;;;;;4.40;1.87;;;;;;;36.64;49.49;160838.34;1773062;81;21342;-78
2021/06/14 07:14:04;;;;;;;2.75;2.00;;;;;;;36.74;49.52;160866.48;1773089;81;21306;-78
2021/06/14 07:16:36;;;;;;;2.17;1.98;;;;;;;36.75;49.53;160869.16;1772835;81;21310;-78
2021/06/14 07:19:09;;;;;;;2.22;1.77;;;;;;;36.70;49.77;160855.75;1772985;81;21218;-78
2021/06/14 07:21:41;;;;;;;3.33;2.05;;;;;;;36.73;49.92;160863.80;1773057;81;21859;-78
2021/06/14 07:24:14;;;;;;;3.75;2.08;;;;;;;36.79;50.08;160878.52;1773225;81;21313;-78
2021/06/14 07:26:47;;;;;;;2.10;1.80;;;;;;;36.81;50.20;160885.20;1760496;81;21261;-78
2021/06/14 07:29:19;;;;;;;2.90;1.62;;;;;;;36.77;50.35;160874.52;1770780;81;21868;-78
2021/06/14 07:31:51;;;;;;;2.62;1.90;;;;;;;36.69;50.93;160851.75;1772374;80;21345;-78
2021/06/14 07:34:24;;;;;;;1.70;1.60;;;;;;;36.71;51.13;160858.44;1771314;81;21179;-78
2021/06/14 07:36:57;;;;;;;2.10;1.90;;;;;;;36.72;51.54;160861.12;1772460;81;21217;-78
2021/06/14 07:39:29;;;;;;;2.25;1.72;;;;;;;36.88;51.54;160903.97;1771435;80;21876;-78
2021/06/14 07:42:01;;;;;;;1.90;1.70;;;;;;;36.93;51.73;160917.37;1770764;81;21800;-78
2021/06/14 07:44:33;;;;;;;4.65;1.85;;;;;;;37.03;51.71;160942.83;1772428;81;21230;-78
2021/06/14 07:47:07;;;;;;;1.98;1.77;;;;;;;37.06;51.75;160953.56;1772494;81;21171;-79
2021/06/14 07:49:41;;;;;;;1.70;1.60;;;;;;;37.14;51.79;160973.66;1771307;81;21230;-78
2021/06/14 07:52:13;;;;;;;2.58;1.75;;;;;;;37.22;51.89;160996.38;1772412;81;21372;-78
2021/06/14 07:54:49;;;;;;;2.27;1.77;;;;;;;37.29;51.90;161015.14;1771776;80;21198;-78
2021/06/14 07:57:21;;;;;;;2.08;1.62;;;;;;;37.35;51.85;161029.94;1770585;81;21194;-78
2021/06/14 07:59:53;;;;;;;2.60;1.80;;;;;;;37.41;51.95;161045.97;1772363;81;21305;-78
2021/06/14 08:02:26;;;;;;;1.98;1.80;;;;;;;37.46;52.06;161059.38;1771549;80;21717;-78
2021/06/14 08:04:58;;;;;;;1.77;1.67;;;;;;;37.62;52.03;161103.56;1770530;81;21187;-78
2021/06/14 08:07:30;;;;;;;3.87;2.00;;;;;;;37.62;52.35;161103.56;1772677;79;21211;-78
2021/06/14 08:10:05;;;;;;;2.10;1.70;;;;;;;37.75;52.42;161137.03;1771679;80;21408;-78
2021/06/14 08:12:44;;;;;;;3.33;1.90;;;;;;;37.87;52.44;161170.59;1771666;81;21214;-79
2021/06/14 08:15:23;;;;;;;2.58;1.70;;;;;;;38.01;52.39;161209.44;1762638;81;21325;-79
2021/06/14 08:18:05;;;;;;;2.45;2.02;;;;;;;38.04;52.32;161217.50;1768193;80;21219;-79
2021/06/14 08:25:38;;;;;;;3.20;1.70;;;;;;;38.24;52.54;161269.80;1772189;80;21203;-79
2021/06/14 08:28:11;;;;;;;2.12;1.90;;;;;;;38.30;52.62;161287.22;1771157;80;21226;-79
2021/06/14 08:30:43;;;;;;;1.60;1.50;;;;;;;38.37;52.49;161305.97;1771125;81;21219;-79
2021/06/14 08:33:16;;;;;;;6.50;1.90;;;;;;;38.50;52.12;161340.81;1770644;81;21170;-78
2021/06/14 08:35:48;;;;;;;2.85;2.00;;;;;;;38.44;52.35;161323.37;1770836;81;21674;-79
2021/06/14 08:38:20;;;;;;;1.85;1.67;;;;;;;38.61;52.18;161368.92;1770532;81;21211;-78
2021/06/14 08:40:53;;;;;;;2.08;1.82;;;;;;;38.69;52.14;161390.45;1771611;81;21265;-78
2021/06/14 08:43:25;;;;;;;2.58;2.05;;;;;;;38.64;52.29;161378.34;1771812;81;21408;-78
2021/06/14 08:45:58;;;;;;;2.95;1.90;;;;;;;38.69;52.25;161390.45;1770606;81;21185;-79
2021/06/14 08:48:31;;;;;;;2.70;1.77;;;;;;;38.81;51.99;161423.94;1771599;81;21202;-78
2021/06/14 08:51:03;;;;;;;2.27;1.65;;;;;;;38.83;51.91;161427.98;1760166;81;21282;-79
2021/06/14 08:53:40;;;;;;;2.33;1.95;;;;;;;38.80;52.07;161419.94;1771052;81;21258;-79
2021/06/14 08:56:16;;;;;;;1.72;1.62;;;;;;;38.94;51.77;161458.78;1772078;81;21183;-79
2021/06/14 08:58:49;;;;;;;1.75;1.65;;;;;;;38.99;51.59;161472.22;1771161;81;21214;-79
2021/06/14 09:01:22;;;;;;;2.65;1.62;;;;;;;39.01;51.50;161478.91;1771057;79;21670;-78
2021/06/14 09:03:55;;;;;;;2.70;2.10;;;;;;;38.99;51.48;161473.53;1771612;81;21238;-78
2021/06/14 09:06:28;;;;;;;2.62;2.17;;;;;;;39.07;51.50;161493.64;1771743;81;21195;-78
2021/06/14 09:09:06;;;;;;;2.80;1.92;;;;;;;39.09;51.60;161499.08;1771528;81;21353;-78
2021/06/14 09:11:48;;;;;;;1.95;1.77;;;;;;;39.02;51.81;161481.59;1771761;81;21353;-79
2021/06/14 09:14:24;;;;;;;1.95;1.75;;;;;;;39.19;51.58;161525.88;1771305;81;21234;-78
2021/06/14 09:17:06;;;;;;;1.62;1.52;;;;;;;39.27;51.44;161547.31;1771553;81;21318;-78
2021/06/14 09:19:42;;;;;;;3.85;2.00;;;;;;;39.28;51.70;161551.36;1770642;81;21278;-78
2021/06/14 09:22:19;;;;;;;2.27;2.02;;;;;;;39.33;51.99;161564.75;1772099;81;21309;-79
2021/06/14 09:25:03;;;;;;;3.12;1.95;;;;;;;39.36;52.16;161572.81;1771087;81;21372;-79
2021/06/14 09:27:50;;;;;;;3.05;2.02;;;;;;;39.40;52.23;161583.55;1772060;81;21262;-79
2021/06/14 09:30:31;;;;;;;2.10;1.70;;;;;;;39.44;52.27;161592.92;1772995;81;21210;-78
2021/06/14 09:33:07;;;;;;;2.55;1.90;;;;;;;39.41;52.22;161586.19;1773118;80;21203;-78
2021/06/14 09:35:43;;;;;;;3.10;2.10;;;;;;;39.56;51.94;161626.47;1773093;81;21194;-79
2021/06/14 09:38:18;;;;;;;2.10;1.87;;;;;;;39.61;51.70;161638.53;1773061;81;21175;-78
2021/06/14 09:41:02;;;;;;;1.95;1.85;;;;;;;39.53;51.87;161617.09;1772921;80;21198;-78
2021/06/14 09:43:37;;;;;;;2.95;2.20;;;;;;;39.82;51.21;161694.84;1772837;80;21872;-79
2021/06/14 09:46:28;;;;;;;1.92;1.75;;;;;;;39.72;51.37;161669.41;1773022;81;21199;-78
2021/06/14 09:49:05;;;;;;;2.10;1.90;;;;;;;39.66;51.61;161653.28;1773097;81;21313;-79
2021/06/14 09:51:38;;;;;;;4.08;1.80;;;;;;;39.71;51.77;161665.34;1773257;81;21242;-78
2021/06/14 09:54:10;;;;;;;3.20;1.77;;;;;;;39.77;51.77;161681.47;1763098;81;21348;-79
2021/06/14 09:56:42;;;;;;;2.85;1.82;;;;;;;39.88;51.56;161710.97;1773101;81;21356;-79
2021/06/14 09:59:15;;;;;;;2.65;2.15;;;;;;;39.71;51.91;161666.72;1772943;81;21424;-79
2021/06/14 10:01:47;;;;;;;2.22;1.60;;;;;;;39.70;51.91;161662.72;1738510;81;21322;-79
2021/06/14 10:04:21;;;;;;;2.05;1.67;;;;;;;39.77;51.81;161681.47;1773207;81;21816;-79
2021/06/14 10:06:57;;;;;;;2.20;1.85;;;;;;;39.77;51.99;161681.47;1772985;81;21309;-78
2021/06/14 10:13:31;;;;;;;2.42;1.70;;;;;;;39.90;51.88;161716.34;1772605;81;21321;-79
2021/06/14 10:16:07;;;;;;;3.27;1.95;;;;;;;40.03;51.39;161752.59;1773283;81;21229;-78
2021/06/14 10:18:58;;;;;;;2.08;1.70;;;;;;;40.12;51.42;161778.09;1773020;81;21440;-79
2021/06/14 10:21:39;;;;;;;1.95;1.77;;;;;;;40.15;51.53;161784.80;1773045;81;21317;-79
2021/06/14 10:24:20;;;;;;;2.27;1.92;;;;;;;40.26;51.37;161815.67;1773049;81;21325;-79
2021/06/14 10:26:56;;;;;;;4.47;2.02;;;;;;;40.39;51.06;161850.61;1772931;81;21253;-78
2021/06/14 10:29:30;;;;;;;2.92;2.05;;;;;;;40.39;50.98;161849.25;1772943;80;21423;-79
2021/06/14 10:32:03;;;;;;;3.20;1.92;;;;;;;40.35;51.07;161839.86;1772990;81;21330;-79
2021/06/14 10:34:37;;;;;;;2.30;2.10;;;;;;;40.51;50.97;161882.77;1773065;81;21357;-79
2021/06/14 10:37:09;;;;;;;1.80;1.70;;;;;;;40.51;50.97;161882.77;1773056;81;21206;-78
2021/06/14 10:39:43;;;;;;;3.65;1.98;;;;;;;40.84;50.50;161971.42;1773368;81;21179;-78
2021/06/14 10:42:16;;;;;;;2.70;2.00;;;;;;;41.44;48.85;162132.52;1773063;81;21353;-78
2021/06/14 10:44:48;;;;;;;2.02;1.80;;;;;;;40.91;49.34;161988.88;1773104;81;21376;-78
2021/06/14 10:47:21;;;;;;;2.33;1.90;;;;;;;40.91;49.34;161988.88;1773194;81;21670;-78
2021/06/14 10:49:56;;;;;;;2.45;1.95;;;;;;;41.35;48.45;162109.73;1773006;81;21217;-78
2021/06/14 10:52:44;;;;;;;2.10;1.90;;;;;;;41.46;48.12;162139.25;1773083;81;21242;-79
2021/06/14 10:55:19;;;;;;;1.70;1.60;;;;;;;41.39;48.45;162119.13;1773013;81;21155;-79
2021/06/14 10:57:51;;;;;;;2.92;1.82;;;;;;;41.39;48.45;162119.13;1773006;81;21468;-79
2021/06/14 11:00:32;;;;;;;3.70;1.87;;;;;;;41.52;48.35;162154.03;1772974;81;21151;-79
2021/06/14 11:03:09;;;;;;;2.30;2.10;;;;;;;41.44;48.57;162132.52;1773145;81;21348;-79
2021/06/14 11:05:46;;;;;;;2.05;1.87;;;;;;;41.46;48.45;162139.25;1773051;81;21808;-79
2021/06/14 11:08:22;;;;;;;2.40;2.20;;;;;;;41.10;48.79;162042.55;1773151;81;21321;-79
2021/06/14 11:11:06;;;;;;;2.15;1.90;;;;;;;41.01;48.99;162018.41;1773014;81;21179;-78
2021/06/14 11:13:51;;;;;;;2.85;1.90;;;;;;;41.36;48.38;162111.05;1772964;81;21357;-79
2021/06/14 11:16:23;;;;;;;4.17;2.27;;;;;;;41.74;47.33;162214.47;1773072;81;21424;-79
2021/06/14 11:19:05;;;;;;;1.82;1.70;;;;;;;41.74;47.33;162214.47;1773052;81;21365;-78
2021/06/14 11:21:39;;;;;;;3.20;1.95;;;;;;;41.17;48.28;162060.06;1772818;80;21860;-79
2021/06/14 11:24:13;;;;;;;2.42;2.20;;;;;;;41.17;48.28;162060.06;1773184;81;21662;-79
2021/06/14 11:26:49;;;;;;;2.42;1.98;;;;;;;41.12;48.37;162047.94;1773070;81;21397;-79
2021/06/14 11:29:22;;;;;;;2.42;2.22;;;;;;;41.25;48.27;162082.89;1763239;81;21322;-79
2021/06/14 11:32:01;;;;;;;2.30;1.75;;;;;;;41.47;47.60;162140.58;1772947;81;22520;-79
2021/06/14 11:34:42;;;;;;;4.72;2.10;;;;;;;41.39;47.37;162120.44;1772923;81;21321;-79
2021/06/14 11:37:15;;;;;;;2.67;1.62;;;;;;;41.12;48.01;162046.56;1773299;81;21214;-79
2021/06/14 11:39:50;;;;;;;1.90;1.70;;;;;;;41.12;48.02;162046.56;1772919;81;21356;-79
2021/06/14 11:42:24;;;;;;;3.60;1.77;;;;;;;41.28;47.89;162089.58;1772606;80;21313;-79
2021/06/14 11:44:59;;;;;;;2.98;2.00;;;;;;;41.32;47.70;162100.34;1773153;81;21317;-78
2021/06/14 11:47:31;;;;;;;1.70;1.60;;;;;;;41.26;47.60;162085.53;1773170;81;21411;-79
2021/06/14 11:50:06;;;;;;;1.77;1.67;;;;;;;41.21;47.64;162072.13;1762538;81;21163;-79
2021/06/14 11:52:38;;;;;;;1.87;1.70;;;;;;;41.32;47.49;162100.34;1773178;81;21805;-79
2021/06/14 11:55:11;;;;;;;1.90;1.80;;;;;;;41.36;47.51;162111.05;1772969;81;21393;-79
2021/06/14 11:57:44;;;;;;;2.50;2.17;;;;;;;41.40;47.32;162121.81;1773136;81;21368;-79
2021/06/14 12:00:29;;;;;;;2.20;2.00;;;;;;;41.41;47.17;162125.81;1772971;81;21175;-79
2021/06/14 12:03:01;;;;;;;2.00;1.70;;;;;;;41.32;47.34;162100.34;1780358;80;21225;-79
2021/06/14 12:05:36;;;;;;;4.62;1.92;;;;;;;41.35;47.00;162108.36;1780288;80;21253;-79